createdAt,value
2023-02-06T00:02:56.229Z,32.15
2023-02-06T00:07:58.441Z,43.45
2023-02-06T00:13:00.824Z,35.28
2023-02-06T00:18:03.009Z,36.65
2023-02-06T00:23:05.318Z,36.35
2023-02-06T00:28:07.442Z,33.40
2023-02-06T00:33:09.554Z,29.77
2023-02-06T00:38:11.757Z,42.83
2023-02-06T00:43:13.917Z,36.15
2023-02-06T00:48:16.571Z,38.30
2023-02-06T00:53:18.974Z,39.55
2023-02-06T00:58:21.178Z,32.78
2023-02-06T01:03:23.358Z,35.90
2023-02-06T01:08:25.640Z,39.75
2023-02-06T01:13:27.740Z,42.80
2023-02-06T01:18:29.737Z,37.80
2023-02-06T01:23:31.859Z,36.35
2023-02-06T01:28:42.471Z,35.10
2023-02-06T01:33:46.219Z,32.45
2023-02-06T01:38:48.916Z,41.88
2023-02-06T01:44:15.535Z,34.83
2023-02-06T01:49:27.311Z,41.67
2023-02-06T01:54:29.497Z,32.25
2023-02-06T01:59:31.747Z,38.72
2023-02-06T02:04:34.144Z,31.08
2023-02-06T02:09:37.358Z,42.67
2023-02-06T02:14:42.281Z,35.22
2023-02-06T02:20:07.080Z,28.50
2023-02-06T02:25:37.385Z,37.90
2023-02-06T02:31:08.247Z,35.60
2023-02-06T02:36:24.544Z,40.07
2023-02-06T02:41:32.090Z,27.17
2023-02-06T02:46:40.864Z,26.50
2023-02-06T02:51:45.046Z,41.15
2023-02-06T02:56:47.306Z,28.85
2023-02-06T03:02:15.525Z,29.77
2023-02-06T03:07:33.077Z,27.35
2023-02-06T03:12:43.012Z,25.60
2023-02-06T03:17:51.509Z,28.97
2023-02-06T03:22:56.024Z,29.20
2023-02-06T03:27:59.249Z,31.17
2023-02-06T03:33:07.305Z,21.88
2023-02-06T03:38:09.933Z,23.27
2023-02-06T03:43:18.494Z,28.23
2023-02-06T03:48:37.132Z,31.35
2023-02-06T03:53:41.316Z,28.75
2023-02-06T03:58:43.353Z,23.52
2023-02-06T04:03:45.873Z,31.17
2023-02-06T04:08:47.961Z,36.63
2023-02-06T04:13:50.178Z,37.70
2023-02-06T04:18:52.286Z,32.28
2023-02-06T04:23:54.309Z,22.98
2023-02-06T04:28:56.675Z,34.83
2023-02-06T04:33:58.875Z,34.15
2023-02-06T04:39:01.559Z,27.92
2023-02-06T04:44:03.713Z,34.92
2023-02-06T04:49:05.847Z,25.15
2023-02-06T04:54:07.927Z,37.13
2023-02-06T04:59:10.173Z,35.33
2023-02-06T05:04:12.226Z,35.13
2023-02-06T05:09:14.263Z,36.67
2023-02-06T05:14:16.290Z,39.47
2023-02-06T05:19:18.289Z,33.50
2023-02-06T05:24:20.346Z,33.17
2023-02-06T05:29:22.509Z,24.10
2023-02-06T05:34:24.692Z,19.05
2023-02-06T05:39:26.892Z,34.17
2023-02-06T05:44:28.944Z,33.03
2023-02-06T05:49:31.033Z,30.88
2023-02-06T05:54:33.339Z,33.92
2023-02-06T05:59:35.373Z,35.85
2023-02-06T06:04:37.567Z,22.02
2023-02-06T06:09:39.755Z,27.35
2023-02-06T06:14:41.785Z,25.90
2023-02-06T06:19:43.958Z,22.50
2023-02-06T06:24:46.231Z,23.58
2023-02-06T06:29:48.255Z,24.95
2023-02-06T06:34:50.375Z,23.73
2023-02-06T06:39:52.366Z,28.65
2023-02-06T06:44:54.480Z,25.08
2023-02-06T06:49:59.628Z,30.73
2023-02-06T06:55:01.814Z,36.78
2023-02-06T07:00:04.950Z,26.50
2023-02-06T07:05:07.188Z,28.13
2023-02-06T07:10:11.428Z,30.08
2023-02-06T07:15:14.109Z,47.20
2023-02-06T07:20:16.615Z,26.40
2023-02-06T07:25:20.255Z,37.50
2023-02-06T07:30:22.383Z,41.45
2023-02-06T07:35:24.811Z,35.83
2023-02-06T07:40:33.760Z,48.33
2023-02-06T07:45:45.288Z,33.70
2023-02-06T07:50:47.327Z,52.03
2023-02-06T07:55:49.408Z,40.45
2023-02-06T08:00:51.507Z,47.67
2023-02-06T08:05:53.546Z,27.85
2023-02-06T08:10:55.584Z,37.53
2023-02-06T08:15:57.638Z,32.03
2023-02-06T08:21:09.418Z,32.40
2023-02-06T08:26:15.598Z,31.63
2023-02-06T08:31:28.621Z,18.73
2023-02-06T08:36:31.862Z,19.25
2023-02-06T08:41:38.715Z,24.65
2023-02-06T08:46:41.580Z,16.38
2023-02-06T08:51:44.531Z,17.80
2023-02-06T08:56:47.099Z,24.45
2023-02-06T09:01:49.479Z,27.83
2023-02-06T09:06:52.120Z,28.40
2023-02-06T09:11:55.658Z,27.48
2023-02-06T09:16:58.348Z,28.25
2023-02-06T09:22:00.504Z,20.60
2023-02-06T09:27:02.701Z,26.65
2023-02-06T09:32:04.906Z,25.65
2023-02-06T09:37:06.953Z,21.80
2023-02-06T09:42:30.430Z,33.22
2023-02-06T09:47:36.073Z,24.58
2023-02-06T09:52:56.807Z,23.20
2023-02-06T09:58:22.371Z,30.17
2023-02-06T10:03:50.050Z,24.77
2023-02-06T10:09:01.573Z,27.58
2023-02-06T10:14:18.969Z,30.33
2023-02-06T10:19:48.163Z,30.42
2023-02-06T10:25:03.335Z,32.70
2023-02-06T10:30:05.665Z,28.45
2023-02-06T10:35:24.828Z,36.45
2023-02-06T10:40:36.185Z,20.95
2023-02-06T10:46:11.096Z,29.08
2023-02-06T10:51:22.231Z,30.85
2023-02-06T10:56:28.522Z,23.20
2023-02-06T11:01:35.591Z,23.58
2023-02-06T11:06:40.195Z,27.15
2023-02-06T11:11:48.512Z,32.47
2023-02-06T11:16:50.834Z,20.25
2023-02-06T11:22:05.743Z,29.67
2023-02-06T11:27:20.570Z,26.08
2023-02-06T11:32:41.390Z,23.95
2023-02-06T11:37:43.604Z,21.33
2023-02-06T11:42:46.605Z,25.92
2023-02-06T11:47:48.860Z,37.92
2023-02-06T11:52:57.295Z,22.48
2023-02-06T11:58:10.716Z,23.52
2023-02-06T12:03:38.959Z,19.10
2023-02-06T12:08:48.300Z,19.23
2023-02-06T12:13:56.233Z,18.50
2023-02-06T12:19:00.017Z,19.42
2023-02-06T12:24:06.089Z,20.75
2023-02-06T12:29:33.301Z,16.45
2023-02-06T12:35:00.180Z,17.90
2023-02-06T12:40:02.305Z,19.85
2023-02-06T12:45:13.398Z,18.40
2023-02-06T12:55:56.073Z,11.60
2023-02-06T13:01:27.869Z,20.42
2023-02-06T13:06:44.237Z,17.10
2023-02-06T13:11:46.343Z,17.08
2023-02-06T13:17:06.784Z,16.75
2023-02-06T13:22:16.792Z,17.90
2023-02-06T13:27:37.552Z,11.63
2023-02-06T13:32:45.277Z,14.37
2023-02-06T13:37:48.796Z,14.48
2023-02-06T13:43:17.125Z,19.33
2023-02-06T13:49:03.725Z,13.85
2023-02-06T13:54:34.336Z,16.08
2023-02-06T13:59:41.774Z,14.80
2023-02-06T14:04:45.923Z,11.77
2023-02-06T14:10:00.207Z,11.40
2023-02-06T14:15:19.313Z,13.45
2023-02-06T14:20:44.095Z,11.63
2023-02-06T14:26:21.352Z,13.80
2023-02-06T14:31:40.321Z,9.07
2023-02-06T14:37:25.059Z,13.15
2023-02-06T14:42:33.015Z,9.38
2023-02-06T14:47:42.197Z,9.43
2023-02-06T14:52:46.995Z,12.48
2023-02-06T14:57:48.983Z,15.88
2023-02-06T15:03:27.882Z,18.20
2023-02-06T15:08:31.535Z,10.57
2023-02-06T15:13:35.580Z,15.68
2023-02-06T15:18:38.214Z,12.55
2023-02-06T15:24:04.215Z,10.60
2023-02-06T15:29:18.450Z,15.40
2023-02-06T15:34:23.503Z,14.25
2023-02-06T15:39:26.170Z,17.15
2023-02-06T15:44:33.882Z,18.50
2023-02-06T15:49:38.061Z,17.27
2023-02-06T15:54:42.535Z,16.17
2023-02-06T15:59:45.279Z,15.98
2023-02-06T16:04:51.465Z,14.88
2023-02-06T16:09:58.621Z,18.40
2023-02-06T16:15:04.618Z,21.48
2023-02-06T16:20:39.754Z,17.50
2023-02-06T16:25:42.231Z,28.70
2023-02-06T16:31:03.071Z,26.02
2023-02-06T16:36:06.276Z,19.38
2023-02-06T16:41:26.936Z,26.85
2023-02-06T16:46:29.750Z,24.33
2023-02-06T16:51:32.331Z,18.52
2023-02-06T16:56:35.809Z,23.40
2023-02-06T17:01:38.043Z,29.33
2023-02-06T17:06:40.601Z,21.67
2023-02-06T17:11:56.901Z,32.60
2023-02-06T17:16:58.974Z,27.02
2023-02-06T17:22:01.107Z,26.00
2023-02-06T17:27:05.440Z,24.52
2023-02-06T17:32:09.106Z,28.52
2023-02-06T17:37:20.416Z,25.55
2023-02-06T17:42:23.162Z,24.85
2023-02-06T17:47:25.929Z,25.65
2023-02-06T17:52:27.969Z,25.67
2023-02-06T17:57:30.732Z,22.92
2023-02-06T18:02:33.022Z,26.77
2023-02-06T18:07:35.259Z,24.88
2023-02-06T18:12:37.548Z,26.42
2023-02-06T18:17:41.400Z,25.77
2023-02-06T18:22:43.548Z,28.20
2023-02-06T18:27:46.039Z,23.75
2023-02-06T18:32:48.308Z,26.17
2023-02-06T18:37:50.389Z,18.77
2023-02-06T18:42:53.881Z,20.40
2023-02-06T18:47:56.082Z,21.98
2023-02-06T18:52:58.081Z,24.67
2023-02-06T18:58:01.064Z,27.40
2023-02-06T19:03:04.098Z,27.42
2023-02-06T19:08:06.271Z,27.38
2023-02-06T19:13:08.360Z,31.85
2023-02-06T19:18:10.731Z,28.77
2023-02-06T19:23:12.717Z,34.80
2023-02-06T19:28:14.793Z,31.30
2023-02-06T19:33:16.906Z,34.90
2023-02-06T19:38:18.968Z,29.85
2023-02-06T19:43:21.000Z,33.08
2023-02-06T19:48:23.010Z,56.85
2023-02-06T19:53:25.124Z,60.72
2023-02-06T19:58:30.871Z,39.00
2023-02-06T20:03:33.069Z,40.33
2023-02-06T20:08:35.478Z,40.80
2023-02-06T20:13:38.387Z,32.45
2023-02-06T20:18:40.440Z,35.38
2023-02-06T20:23:42.806Z,33.30
2023-02-06T20:28:45.555Z,35.03
2023-02-06T20:33:48.276Z,45.53
2023-02-06T20:38:52.587Z,32.83
2023-02-06T20:43:59.793Z,45.75
2023-02-06T20:49:04.766Z,44.78
2023-02-06T20:54:07.021Z,51.90
2023-02-06T20:59:13.152Z,65.70
2023-02-06T21:04:16.212Z,63.03
2023-02-06T21:09:18.455Z,95.82
2023-02-06T21:14:20.808Z,93.57
2023-02-06T21:19:23.178Z,87.25
2023-02-06T21:24:25.197Z,79.43
2023-02-06T21:29:27.386Z,53.78
2023-02-06T21:34:29.540Z,44.50
2023-02-06T21:39:32.982Z,43.22
2023-02-06T21:44:36.925Z,39.75
2023-02-06T21:49:39.146Z,40.13
2023-02-06T21:54:41.370Z,36.72
2023-02-06T21:59:43.878Z,39.00
2023-02-06T22:04:46.142Z,43.25
2023-02-06T22:09:48.387Z,39.47
2023-02-06T22:14:50.645Z,39.03
2023-02-06T22:19:53.646Z,45.17
2023-02-06T22:24:55.826Z,38.13
2023-02-06T22:29:58.035Z,41.60
2023-02-06T22:35:00.374Z,40.92
2023-02-06T22:40:02.810Z,37.60
2023-02-06T22:45:05.524Z,42.58
2023-02-06T22:50:07.822Z,43.20
2023-02-06T22:55:09.844Z,43.70
2023-02-06T23:00:14.048Z,43.47
2023-02-06T23:05:17.123Z,38.65
2023-02-06T23:10:19.296Z,36.15
2023-02-06T23:15:21.361Z,38.15
2023-02-06T23:20:23.410Z,36.55
2023-02-06T23:25:29.381Z,41.81
2023-02-06T23:30:31.437Z,34.33
2023-02-06T23:35:38.386Z,33.85
2023-02-06T23:40:40.603Z,33.90
2023-02-06T23:45:42.701Z,25.20
2023-02-06T23:50:44.688Z,31.75
2023-02-06T23:55:46.908Z,35.70
